createdAt,value
2023-05-24T00:02:17.019Z,15.68
2023-05-24T00:05:17.083Z,15.61
2023-05-24T00:08:17.098Z,15.55
2023-05-24T00:11:17.100Z,15.49
2023-05-24T00:14:17.080Z,15.45
2023-05-24T00:17:17.151Z,15.40
2023-05-24T00:20:20.099Z,15.32
2023-05-24T00:23:20.454Z,15.24
2023-05-24T00:26:20.088Z,15.18
2023-05-24T00:29:22.089Z,15.13
2023-05-24T00:32:22.199Z,15.10
2023-05-24T00:35:23.107Z,15.06
2023-05-24T00:38:24.122Z,15.03
2023-05-24T00:41:24.122Z,15.00
2023-05-24T00:44:24.109Z,14.97
2023-05-24T00:47:24.164Z,14.95
2023-05-24T00:50:24.111Z,14.95
2023-05-24T00:53:24.140Z,14.93
2023-05-24T00:56:21.694Z,14.95
2023-05-24T00:59:10.115Z,14.99
2023-05-24T01:02:05.172Z,15.01
2023-05-24T01:05:06.335Z,15.02
2023-05-24T01:08:24.192Z,15.04
2023-05-24T01:11:42.125Z,15.06
2023-05-24T01:15:16.219Z,15.08
2023-05-24T01:18:28.161Z,15.12
2023-05-24T01:21:54.221Z,15.17
2023-05-24T01:25:00.221Z,15.20
2023-05-24T01:28:00.197Z,15.21
2023-05-24T01:31:01.201Z,15.22
2023-05-24T01:34:03.193Z,15.24
2023-05-24T01:37:03.227Z,15.24
2023-05-24T01:40:03.348Z,15.25
2023-05-24T01:43:12.171Z,15.25
2023-05-24T01:46:30.280Z,15.25
2023-05-24T01:49:39.218Z,15.23
2023-05-24T01:52:42.265Z,15.20
2023-05-24T01:55:42.249Z,15.16
2023-05-24T01:58:43.196Z,15.14
2023-05-24T02:01:43.324Z,15.10
2023-05-24T02:04:43.266Z,15.08
2023-05-24T02:07:43.249Z,15.07
2023-05-24T02:10:46.262Z,15.05
2023-05-24T02:13:47.349Z,15.05
2023-05-24T02:16:48.305Z,15.05
2023-05-24T02:19:48.413Z,15.05
2023-05-24T02:22:48.347Z,15.07
2023-05-24T02:25:48.435Z,15.06
2023-05-24T02:28:48.434Z,15.06
2023-05-24T02:31:49.349Z,15.06
2023-05-24T02:34:49.288Z,15.08
2023-05-24T02:37:42.520Z,15.11
2023-05-24T02:40:42.499Z,15.15
2023-05-24T02:43:43.306Z,15.15
2023-05-24T02:46:43.445Z,15.12
2023-05-24T02:49:43.289Z,15.10
2023-05-24T02:52:43.386Z,15.13
2023-05-24T02:55:43.624Z,15.14
2023-05-24T02:58:46.349Z,15.16
2023-05-24T03:01:49.355Z,15.14
2023-05-24T03:04:52.343Z,15.11
2023-05-24T03:07:52.327Z,15.09
2023-05-24T03:10:52.406Z,15.06
2023-05-24T03:13:53.348Z,15.06
2023-05-24T03:16:55.373Z,15.06
2023-05-24T03:19:56.361Z,15.06
2023-05-24T03:22:57.392Z,15.06
2023-05-24T03:25:57.522Z,15.04
2023-05-24T03:28:58.345Z,15.03
2023-05-24T03:32:02.599Z,15.02
2023-05-24T03:35:03.406Z,15.02
2023-05-24T03:38:03.445Z,15.03
2023-05-24T03:41:04.502Z,15.05
2023-05-24T03:44:05.409Z,15.07
2023-05-24T03:47:05.507Z,15.12
2023-05-24T03:49:58.424Z,15.17
2023-05-24T03:52:59.418Z,15.21
2023-05-24T03:55:59.385Z,15.21
2023-05-24T03:58:59.465Z,15.22
2023-05-24T04:01:59.441Z,15.26
2023-05-24T04:04:59.437Z,15.33
2023-05-24T04:07:59.487Z,15.38
2023-05-24T04:11:01.511Z,15.44
2023-05-24T04:14:04.427Z,15.53
2023-05-24T04:17:04.765Z,15.62
2023-05-24T04:20:04.525Z,15.73
2023-05-24T04:23:04.564Z,15.88
2023-05-24T04:26:08.482Z,16.02
2023-05-24T04:29:11.496Z,16.15
2023-05-24T04:32:12.561Z,16.28
2023-05-24T04:35:12.510Z,16.43
2023-05-24T04:38:24.497Z,16.62
2023-05-24T04:41:31.995Z,16.80
2023-05-24T04:44:32.519Z,16.96
2023-05-24T04:47:32.560Z,17.09
2023-05-24T04:50:32.602Z,17.25
2023-05-24T04:53:32.623Z,17.44
2023-05-24T04:56:32.520Z,17.63
2023-05-24T04:59:32.532Z,17.84
2023-05-24T05:02:32.698Z,18.06
2023-05-24T05:05:32.507Z,18.27
2023-05-24T05:08:34.578Z,18.48
2023-05-24T05:11:34.572Z,18.69
2023-05-24T05:14:35.586Z,18.95
2023-05-24T05:17:35.698Z,19.23
2023-05-24T05:20:35.626Z,19.51
2023-05-24T05:23:35.570Z,19.76
2023-05-24T05:26:35.614Z,20.00
2023-05-24T05:29:35.618Z,20.27
2023-05-24T05:32:35.692Z,20.53
2023-05-24T05:35:35.640Z,20.76
2023-05-24T05:38:35.595Z,21.00
2023-05-24T05:44:58.647Z,21.45
2023-05-24T05:47:58.893Z,21.67
2023-05-24T05:50:59.628Z,21.85
2023-05-24T05:53:59.660Z,22.17
2023-05-24T05:57:04.755Z,22.46
2023-05-24T06:00:04.686Z,22.67
2023-05-24T06:03:09.871Z,22.87
2023-05-24T06:06:10.923Z,23.06
2023-05-24T06:09:14.317Z,23.26
2023-05-24T06:12:14.671Z,23.54
2023-05-24T06:15:15.776Z,23.82
2023-05-24T06:18:16.732Z,24.23
2023-05-24T06:21:17.906Z,24.65
2023-05-24T06:24:17.797Z,24.85
2023-05-24T06:27:20.954Z,25.05
2023-05-24T06:34:14.938Z,25.77
2023-05-24T06:40:42.417Z,26.62
2023-05-24T06:43:42.729Z,26.79
2023-05-24T06:46:42.800Z,26.91
2023-05-24T06:49:42.726Z,27.06
2023-05-24T06:52:42.848Z,27.43
2023-05-24T06:55:43.787Z,27.68
2023-05-24T06:58:43.797Z,27.82
2023-05-24T07:01:48.965Z,28.15
2023-05-24T07:04:49.902Z,28.34
2023-05-24T07:07:49.837Z,28.41
2023-05-24T07:10:50.791Z,28.55
2023-05-24T07:13:50.763Z,28.78
2023-05-24T07:16:53.127Z,28.96
2023-05-24T07:19:54.873Z,29.15
2023-05-24T07:22:54.792Z,29.29
2023-05-24T07:25:54.810Z,29.25
2023-05-24T07:28:56.796Z,29.19
2023-05-24T07:31:56.859Z,29.51
2023-05-24T07:34:59.415Z,29.69
2023-05-24T07:37:59.910Z,29.80
2023-05-24T07:40:59.818Z,29.32
2023-05-24T07:44:01.034Z,28.67
2023-05-24T07:47:01.975Z,28.40
2023-05-24T07:50:03.868Z,28.29
2023-05-24T07:53:04.234Z,28.19
2023-05-24T07:56:03.886Z,28.00
2023-05-24T07:59:12.047Z,27.65
2023-05-24T08:02:11.929Z,27.23
2023-05-24T08:05:14.938Z,27.02
2023-05-24T08:08:14.863Z,26.79
2023-05-24T08:11:15.871Z,26.85
2023-05-24T08:14:15.928Z,27.37
2023-05-24T08:17:15.921Z,28.11
2023-05-24T08:20:23.062Z,28.77
2023-05-24T08:23:24.130Z,29.08
2023-05-24T08:26:24.924Z,29.40
2023-05-24T08:29:24.915Z,29.89
2023-05-24T08:32:24.997Z,30.34
2023-05-24T08:35:25.024Z,30.37
2023-05-24T08:38:25.021Z,30.01
2023-05-24T08:41:29.976Z,29.45
2023-05-24T08:44:32.451Z,28.84
2023-05-24T08:47:35.076Z,28.17
2023-05-24T08:50:35.019Z,27.43
2023-05-24T08:53:34.981Z,26.76
2023-05-24T08:56:38.246Z,26.34
2023-05-24T08:59:37.946Z,26.08
2023-05-24T09:03:16.071Z,25.81
2023-05-24T09:06:18.078Z,25.66
2023-05-24T09:09:18.025Z,25.55
2023-05-24T09:12:25.094Z,25.41
2023-05-24T09:15:36.067Z,25.31
2023-05-24T09:18:36.244Z,25.27
2023-05-24T09:21:36.065Z,25.07
2023-05-24T09:24:37.166Z,24.89
2023-05-24T09:27:38.183Z,24.79
2023-05-24T09:30:39.122Z,24.62
2023-05-24T09:33:45.076Z,24.49
2023-05-24T09:36:45.081Z,24.44
2023-05-24T09:39:45.034Z,24.40
2023-05-24T09:42:47.278Z,24.46
2023-05-24T09:45:47.406Z,24.55
2023-05-24T09:48:48.138Z,24.58
2023-05-24T09:51:50.090Z,24.66
2023-05-24T09:54:52.184Z,24.69
2023-05-24T09:57:52.191Z,24.72
2023-05-24T10:00:52.256Z,24.77
2023-05-24T10:04:08.906Z,24.70
2023-05-24T10:07:10.269Z,24.73
2023-05-24T10:10:10.147Z,24.75
2023-05-24T10:13:11.142Z,24.82
2023-05-24T10:16:11.224Z,24.97
2023-05-24T10:19:16.129Z,25.05
2023-05-24T10:22:19.165Z,25.13
2023-05-24T10:25:21.163Z,25.18
2023-05-24T10:28:22.207Z,25.42
2023-05-24T10:39:22.172Z,25.64
2023-05-24T10:42:24.171Z,25.58
2023-05-24T10:45:37.247Z,25.64
2023-05-24T10:48:43.231Z,25.62
2023-05-24T10:51:44.225Z,25.55
2023-05-24T10:54:55.996Z,25.42
2023-05-24T10:58:03.266Z,25.26
2023-05-24T11:01:04.204Z,25.23
2023-05-24T11:04:04.370Z,25.18
2023-05-24T11:07:07.304Z,25.43
2023-05-24T11:10:13.298Z,25.77
2023-05-24T11:13:13.295Z,25.72
2023-05-24T11:16:13.294Z,25.57
2023-05-24T11:19:25.316Z,25.55
2023-05-24T11:22:26.326Z,25.54
2023-05-24T11:25:26.615Z,25.53
2023-05-24T11:28:26.373Z,25.63
2023-05-24T11:31:26.272Z,25.80
2023-05-24T11:34:26.313Z,25.99
2023-05-24T11:37:42.566Z,26.19
2023-05-24T11:40:51.239Z,26.10
2023-05-24T11:43:51.299Z,25.95
2023-05-24T11:46:51.260Z,25.89
2023-05-24T11:49:52.297Z,25.94
2023-05-24T11:52:55.793Z,26.03
2023-05-24T11:55:57.369Z,26.07
2023-05-24T11:58:59.373Z,26.16
2023-05-24T12:01:59.633Z,26.21
2023-05-24T12:05:13.714Z,26.23
2023-05-24T12:08:24.382Z,26.23
2023-05-24T12:11:26.372Z,26.14
2023-05-24T12:14:26.340Z,26.15
2023-05-24T12:17:31.498Z,26.37
2023-05-24T12:20:31.390Z,26.69
2023-05-24T12:23:38.424Z,27.16
2023-05-24T12:26:38.389Z,27.56
2023-05-24T12:29:38.378Z,27.91
2023-05-24T12:32:38.470Z,28.26
2023-05-24T12:35:40.381Z,28.29
2023-05-24T12:38:40.405Z,27.85
2023-05-24T12:41:41.471Z,27.59
2023-05-24T12:44:46.395Z,27.48
2023-05-24T12:47:46.502Z,27.32
2023-05-24T12:50:46.400Z,27.11
2023-05-24T12:53:47.435Z,26.92
2023-05-24T12:56:47.455Z,26.71
2023-05-24T12:59:48.600Z,26.57
2023-05-24T13:02:53.468Z,26.42
2023-05-24T13:05:53.544Z,26.29
2023-05-24T13:08:55.483Z,26.17
2023-05-24T13:11:55.502Z,26.19
2023-05-24T13:14:57.414Z,26.41
2023-05-24T13:17:57.515Z,26.61
2023-05-24T13:20:58.421Z,26.62
2023-05-24T13:23:59.528Z,26.42
2023-05-24T13:27:01.534Z,26.26
2023-05-24T13:30:02.772Z,26.21
2023-05-24T13:33:02.605Z,26.32
2023-05-24T13:36:03.481Z,26.53
2023-05-24T13:39:14.816Z,26.69
2023-05-24T13:42:17.541Z,26.77
2023-05-24T13:45:19.141Z,26.74
2023-05-24T13:48:19.520Z,26.51
2023-05-24T13:51:19.584Z,26.59
2023-05-24T13:54:20.500Z,26.81
2023-05-24T13:57:23.390Z,27.11
2023-05-24T14:00:25.552Z,27.35
2023-05-24T14:03:34.589Z,27.57
2023-05-24T14:06:34.544Z,27.72
2023-05-24T14:09:34.558Z,27.89
2023-05-24T14:12:34.546Z,27.87
2023-05-24T14:15:35.596Z,27.83
2023-05-24T14:18:36.549Z,27.84
2023-05-24T14:21:36.639Z,27.75
2023-05-24T14:24:38.365Z,27.56
2023-05-24T14:27:38.562Z,27.62
2023-05-24T14:30:38.717Z,27.70
2023-05-24T14:33:42.024Z,27.81
2023-05-24T14:36:43.618Z,27.94
2023-05-24T14:39:43.616Z,27.95
2023-05-24T14:42:43.837Z,27.86
2023-05-24T14:45:46.934Z,27.72
2023-05-24T14:48:44.435Z,27.60
2023-05-24T14:51:46.940Z,27.37
2023-05-24T14:54:46.651Z,27.07
2023-05-24T14:57:47.653Z,26.79
2023-05-24T15:00:47.929Z,26.58
2023-05-24T15:03:49.700Z,26.34
2023-05-24T15:06:50.643Z,26.25
2023-05-24T15:09:50.727Z,26.23
2023-05-24T15:12:51.625Z,26.24
2023-05-24T15:15:51.679Z,26.19
2023-05-24T15:18:54.347Z,26.20
2023-05-24T15:21:54.684Z,26.10
2023-05-24T15:24:55.713Z,25.97
2023-05-24T15:27:56.794Z,25.88
2023-05-24T15:30:56.800Z,25.84
2023-05-24T15:33:58.775Z,25.82
2023-05-24T15:36:58.937Z,25.67
2023-05-24T15:39:59.741Z,25.54
2023-05-24T15:43:00.850Z,25.52
2023-05-24T15:46:03.217Z,25.48
2023-05-24T15:49:03.808Z,25.41
2023-05-24T15:52:04.987Z,25.22
2023-05-24T15:55:05.987Z,25.03
2023-05-24T15:58:05.746Z,24.81
2023-05-24T16:01:05.791Z,24.60
2023-05-24T16:04:05.924Z,24.47
2023-05-24T16:07:06.785Z,24.36
2023-05-24T16:10:11.744Z,24.24
2023-05-24T16:13:12.088Z,24.15
2023-05-24T16:16:12.842Z,24.04
2023-05-24T16:19:13.829Z,23.88
2023-05-24T16:22:13.823Z,23.77
2023-05-24T16:25:13.804Z,23.71
2023-05-24T16:28:14.969Z,23.64
2023-05-24T16:31:14.827Z,23.57
2023-05-24T16:34:14.820Z,23.56
2023-05-24T16:37:15.841Z,23.58
2023-05-24T16:40:17.876Z,23.51
2023-05-24T16:43:18.866Z,23.44
2023-05-24T16:46:19.078Z,23.39
2023-05-24T16:49:19.817Z,23.37
2023-05-24T16:52:19.830Z,23.34
2023-05-24T16:55:19.954Z,23.21
2023-05-24T16:58:19.905Z,23.09
2023-05-24T17:01:19.937Z,22.97
2023-05-24T17:04:19.876Z,22.87
2023-05-24T17:07:19.909Z,22.79
2023-05-24T17:10:24.196Z,22.73
2023-05-24T17:13:23.999Z,22.64
2023-05-24T17:16:23.917Z,22.55
2023-05-24T17:19:24.909Z,22.46
2023-05-24T17:22:28.644Z,22.38
2023-05-24T17:25:28.958Z,22.32
2023-05-24T17:28:35.891Z,22.24
2023-05-24T17:31:35.999Z,22.15
2023-05-24T17:34:36.011Z,22.03
2023-05-24T17:37:35.989Z,21.93
2023-05-24T17:40:36.983Z,21.84
2023-05-24T17:43:40.964Z,21.72
2023-05-24T17:46:43.043Z,21.61
2023-05-24T17:49:42.978Z,21.51
2023-05-24T17:52:43.044Z,21.40
2023-05-24T17:55:43.160Z,21.31
2023-05-24T17:58:46.089Z,21.20
2023-05-24T18:01:49.381Z,21.09
2023-05-24T18:04:50.022Z,21.02
2023-05-24T18:07:49.932Z,20.95
2023-05-24T18:10:50.030Z,20.85
2023-05-24T18:13:50.045Z,20.77
2023-05-24T18:16:52.085Z,20.69
2023-05-24T18:19:45.978Z,20.63
2023-05-24T18:22:47.055Z,20.56
2023-05-24T18:25:51.036Z,20.49
2023-05-24T18:29:02.366Z,20.43
2023-05-24T18:32:04.047Z,20.37
2023-05-24T18:35:04.026Z,20.32
2023-05-24T18:38:04.040Z,20.26
2023-05-24T18:41:05.995Z,20.18
2023-05-24T18:44:07.087Z,20.12
2023-05-24T18:47:08.152Z,20.05
2023-05-24T18:50:08.103Z,19.99
2023-05-24T18:53:11.089Z,19.91
2023-05-24T18:56:12.098Z,19.82
2023-05-24T18:59:12.677Z,19.73
2023-05-24T19:02:13.129Z,19.66
2023-05-24T19:05:13.151Z,19.63
2023-05-24T19:08:15.058Z,19.61
2023-05-24T19:11:18.084Z,19.58
2023-05-24T19:14:20.098Z,19.53
2023-05-24T19:17:20.184Z,19.49
2023-05-24T19:20:21.290Z,19.47
2023-05-24T19:23:21.090Z,19.45
2023-05-24T19:26:24.139Z,19.39
2023-05-24T19:29:25.162Z,19.32
2023-05-24T19:32:26.236Z,19.24
2023-05-24T19:35:27.168Z,19.19
2023-05-24T19:38:27.155Z,19.16
2023-05-24T19:41:28.201Z,19.13
2023-05-24T19:44:33.219Z,19.11
2023-05-24T19:47:34.172Z,19.11
2023-05-24T19:50:37.216Z,19.08
2023-05-24T19:53:37.792Z,19.05
2023-05-24T19:56:38.170Z,19.03
2023-05-24T19:59:38.139Z,18.99
2023-05-24T20:02:39.490Z,18.95
2023-05-24T20:05:40.393Z,18.91
2023-05-24T20:08:40.460Z,18.89
2023-05-24T20:11:41.201Z,18.87
2023-05-24T20:14:41.235Z,18.84
2023-05-24T20:17:43.286Z,18.81
2023-05-24T20:20:47.652Z,18.78
2023-05-24T20:23:48.195Z,18.76
2023-05-24T20:26:49.394Z,18.74
2023-05-24T20:29:51.328Z,18.71
2023-05-24T20:32:52.312Z,18.69
2023-05-24T20:35:52.299Z,18.67
2023-05-24T20:38:52.235Z,18.67
2023-05-24T20:41:52.635Z,18.65
2023-05-24T20:44:52.273Z,18.62
2023-05-24T20:47:53.405Z,18.57
2023-05-24T21:03:03.916Z,18.41
2023-05-24T21:11:12.105Z,18.33
2023-05-24T21:18:18.524Z,18.24
2023-05-24T21:21:37.775Z,18.19
2023-05-24T21:24:47.782Z,18.14
2023-05-24T21:35:09.683Z,18.06
2023-05-24T21:52:39.193Z,17.98
2023-05-24T22:21:05.540Z,17.54
2023-05-24T22:35:36.138Z,17.10
2023-05-24T22:42:44.026Z,16.82
2023-05-24T22:45:52.840Z,16.71
2023-05-24T22:55:53.418Z,16.54
2023-05-24T23:25:09.388Z,16.60
2023-05-24T23:49:35.680Z,16.53
2023-05-24T23:53:01.807Z,16.52
2023-05-24T23:56:13.533Z,16.51
